Terminal Aerodrome Forecast
Issued by NWS

Home | Current Version | Previous Version | Graphics & Text | Print | Product List | Glossary On
Versions: 1 2 3 4 5 6 7 8 9 10 11 12 13 14 15
330
FTUS43 KTOP 240520
TAFFOE
TAF
KFOE 240520Z 2406/2506 19008KT P6SM BKN150
     FM241400 26007KT P6SM SCT150 PROB30 2421/2424 6SM -TSRA
      SCT070CB BKN150
     FM250000 05007KT P6SM SCT070 BKN150 PROB30 2500/2504 6SM -TSRA
      BKN070CB=

USA.gov is the U.S. government's official web portal to all federal, state and local government web resources and services.